createdAt,value
2019-02-08T00:01:44.334Z,12.57
2019-02-08T00:12:19.710Z,16.00
2019-02-08T00:17:42.334Z,14.38
2019-02-08T00:20:12.836Z,15.80
2019-02-08T00:25:22.397Z,16.73
2019-02-08T00:33:40.730Z,17.15
2019-02-08T00:36:20.598Z,12.87
2019-02-08T00:39:02.631Z,16.85
2019-02-08T00:42:04.304Z,13.00
2019-02-08T00:44:44.875Z,14.73
2019-02-08T00:47:28.925Z,9.70
2019-02-08T00:50:22.344Z,16.00
2019-02-08T00:53:15.565Z,13.97
2019-02-08T00:58:34.509Z,15.77
2019-02-08T01:01:13.648Z,13.73
2019-02-08T01:06:34.416Z,13.98
2019-02-08T01:09:05.815Z,15.43
2019-02-08T01:14:16.571Z,12.90
2019-02-08T01:16:48.984Z,10.17
2019-02-08T01:19:18.481Z,10.00
2019-02-08T01:21:50.489Z,10.63
2019-02-08T01:24:20.429Z,10.33
2019-02-08T01:27:05.854Z,10.97
2019-02-08T01:29:34.896Z,8.10
2019-02-08T01:32:10.084Z,10.23
2019-02-08T01:34:47.598Z,9.30
2019-02-08T01:37:16.665Z,11.30
2019-02-08T01:39:56.730Z,8.30
2019-02-08T01:42:35.029Z,10.63
2019-02-08T01:45:04.103Z,9.90
2019-02-08T01:50:08.857Z,10.95
2019-02-08T01:52:38.325Z,11.75
2019-02-08T01:55:08.439Z,12.13
2019-02-08T01:57:37.861Z,17.93
2019-02-08T02:00:16.397Z,8.73
2019-02-08T02:02:45.584Z,9.77
2019-02-08T02:05:19.083Z,9.30
2019-02-08T02:07:48.157Z,9.10
2019-02-08T02:10:28.915Z,9.20
2019-02-08T02:12:57.955Z,9.00
2019-02-08T02:15:27.025Z,8.83
2019-02-08T02:17:58.510Z,7.03
2019-02-08T02:20:30.279Z,9.80
2019-02-08T02:22:59.340Z,9.50
2019-02-08T02:25:31.061Z,7.70
2019-02-08T02:28:15.597Z,9.50
2019-02-08T02:30:44.980Z,10.77
2019-02-08T02:35:59.348Z,10.02
2019-02-08T02:38:32.776Z,8.53
2019-02-08T02:41:01.861Z,9.13
2019-02-08T02:43:36.684Z,6.33
2019-02-08T02:46:05.735Z,7.17
2019-02-08T02:51:11.822Z,8.60
2019-02-08T02:53:50.646Z,8.15
2019-02-08T02:56:19.687Z,8.87
2019-02-08T02:58:52.228Z,6.77
2019-02-08T03:01:34.219Z,7.40
2019-02-08T03:04:03.715Z,7.20
2019-02-08T03:06:41.048Z,6.23
2019-02-08T03:09:10.148Z,5.80
